createdAt,value
2019-02-04T00:00:31.861Z,21.6
2019-02-04T00:01:21.368Z,21.9
2019-02-04T00:02:11.084Z,22.1
2019-02-04T00:03:02.008Z,22.3
2019-02-04T00:03:52.373Z,22.5
2019-02-04T00:04:41.605Z,22.6
2019-02-04T00:05:31.904Z,22.8
2019-02-04T00:06:21.393Z,22.9
2019-02-04T00:07:15.663Z,23.1
2019-02-04T00:08:02.458Z,23.2
2019-02-04T00:08:51.617Z,23.3
2019-02-04T00:09:41.773Z,23.3
2019-02-04T00:10:34.409Z,22.7
2019-02-04T00:11:22.415Z,22.1
2019-02-04T00:12:12.647Z,21.7
2019-02-04T00:13:02.436Z,21.4
2019-02-04T00:14:42.842Z,20.9
2019-02-04T00:15:32.655Z,20.8
2019-02-04T00:16:25.107Z,20.6
2019-02-04T00:17:12.987Z,20.5
2019-02-04T00:18:02.541Z,20.4
2019-02-04T00:18:52.391Z,20.3
2019-02-04T00:19:44.924Z,20.1
2019-02-04T00:20:32.502Z,20
2019-02-04T00:21:23.139Z,19.9
2019-02-04T00:22:13.345Z,19.9
2019-02-04T00:23:03.401Z,19.8
2019-02-04T00:23:52.621Z,19.6
2019-02-04T00:24:43.554Z,20
2019-02-04T00:25:35.029Z,20.7
2019-02-04T00:26:22.881Z,21.2
2019-02-04T00:27:14.169Z,21.5
2019-02-04T00:28:04.122Z,21.8
2019-02-04T00:28:55.738Z,22.1
2019-02-04T00:29:43.886Z,22.3
2019-02-04T00:30:33.856Z,22.4
2019-02-04T00:31:23.697Z,22.6
2019-02-04T00:32:14.319Z,22.8
2019-02-04T00:33:04.184Z,22.9
2019-02-04T00:33:54.646Z,23
2019-02-04T00:34:45.496Z,23.1
2019-02-04T00:35:34.263Z,23.3
2019-02-04T00:36:24.316Z,23.3
2019-02-04T00:37:13.838Z,22.6
2019-02-04T00:38:06.898Z,22.1
2019-02-04T00:38:55.035Z,21.8
2019-02-04T00:39:43.970Z,21.4
2019-02-04T00:41:25.041Z,20.9
2019-02-04T00:42:13.975Z,20.8
2019-02-04T00:43:05.095Z,20.6
2019-02-04T00:43:56.245Z,20.5
2019-02-04T00:44:44.627Z,20.4
2019-02-04T00:45:35.633Z,20.3
2019-02-04T00:46:25.073Z,20.2
2019-02-04T00:47:17.690Z,20.1
2019-02-04T00:48:05.566Z,19.9
2019-02-04T00:48:55.238Z,19.8
2019-02-04T00:49:45.475Z,19.8
2019-02-04T00:50:34.995Z,19.6
2019-02-04T00:51:25.990Z,19.6
2019-02-04T00:52:15.397Z,19.5
2019-02-04T00:53:06.528Z,19.6
2019-02-04T00:53:56.075Z,20.3
2019-02-04T00:54:59.387Z,20.9
2019-02-04T00:55:36.057Z,21.4
2019-02-04T00:56:28.622Z,21.7
2019-02-04T00:57:15.789Z,22
2019-02-04T00:58:06.067Z,22.2
2019-02-04T00:58:56.585Z,22.4
2019-02-04T00:59:45.379Z,22.6
2019-02-04T01:00:36.629Z,22.7
2019-02-04T01:01:25.199Z,22.9
2019-02-04T01:02:16.825Z,23
2019-02-04T01:03:05.686Z,23.1
2019-02-04T01:03:55.911Z,23.2
2019-02-04T01:04:46.914Z,23.3
2019-02-04T01:05:38.576Z,23.1
2019-02-04T01:06:26.989Z,22.5
2019-02-04T01:07:16.441Z,22
2019-02-04T01:08:06.762Z,21.6
2019-02-04T01:08:57.131Z,21.3
2019-02-04T01:09:46.039Z,21.1
2019-02-04T01:10:37.096Z,20.9
2019-02-04T01:11:27.429Z,20.7
2019-02-04T01:12:17.324Z,20.5
2019-02-04T01:13:07.403Z,20.4
2019-02-04T01:13:57.149Z,20.3
2019-02-04T01:14:49.096Z,20.2
2019-02-04T01:15:36.778Z,20.1
2019-02-04T01:16:27.793Z,20
2019-02-04T01:17:16.965Z,19.9
2019-02-04T01:18:08.462Z,19.8
2019-02-04T01:18:57.092Z,19.7
2019-02-04T01:19:47.160Z,19.6
2019-02-04T01:20:36.509Z,19.5
2019-02-04T01:21:27.384Z,19.4
2019-02-04T01:22:16.770Z,19.8
2019-02-04T01:23:08.004Z,20.4
2019-02-04T01:23:59.761Z,21.1
2019-02-04T01:24:49.614Z,21.4
2019-02-04T01:25:37.942Z,21.8
2019-02-04T01:26:26.569Z,22
2019-02-04T01:27:19.743Z,22.2
2019-02-04T01:28:06.684Z,22.4
2019-02-04T01:28:57.224Z,22.6
2019-02-04T01:29:47.581Z,22.8
2019-02-04T01:30:37.944Z,22.9
2019-02-04T01:31:27.146Z,23.1
2019-02-04T01:32:18.053Z,23.2
2019-02-04T01:33:08.998Z,23.3
2019-02-04T01:33:58.841Z,23.4
2019-02-04T01:34:51.506Z,22.8
2019-02-04T01:35:38.426Z,22.2
2019-02-04T01:36:30.445Z,21.8
2019-02-04T01:37:17.936Z,21.4
2019-02-04T01:38:08.505Z,21.2
2019-02-04T01:38:58.228Z,21
2019-02-04T01:39:49.553Z,20.8
2019-02-04T01:40:38.701Z,20.6
2019-02-04T01:41:28.929Z,20.5
2019-02-04T01:42:18.758Z,20.4
2019-02-04T01:43:09.078Z,20.3
2019-02-04T01:43:58.573Z,20.1
2019-02-04T01:44:48.073Z,20.1
2019-02-04T01:45:41.815Z,19.9
2019-02-04T01:46:29.033Z,19.9
2019-02-04T01:47:25.975Z,19.8
2019-02-04T01:48:08.651Z,19.6
2019-02-04T01:49:00.776Z,19.6
2019-02-04T01:49:48.757Z,19.4
2019-02-04T01:50:39.365Z,19.5
2019-02-04T01:51:29.255Z,20.1
2019-02-04T01:52:37.910Z,20.8
2019-02-04T01:53:09.232Z,21.3
2019-02-04T01:53:59.537Z,21.6
2019-02-04T01:54:52.037Z,21.9
2019-02-04T01:55:39.658Z,22.1
2019-02-04T01:56:29.752Z,22.3
2019-02-04T01:57:20.170Z,22.5
2019-02-04T01:58:10.002Z,22.7
2019-02-04T01:58:59.649Z,22.8
2019-02-04T01:59:50.030Z,23
2019-02-04T02:00:39.300Z,23.1
2019-02-04T02:01:30.359Z,23.2
2019-02-04T02:02:19.069Z,23.3
2019-02-04T02:03:09.777Z,22.9
2019-02-04T02:04:02.089Z,22.4
2019-02-04T02:04:49.734Z,21.9
2019-02-04T02:05:39.269Z,21.5
2019-02-04T02:06:29.574Z,21.3
2019-02-04T02:07:23.034Z,21
2019-02-04T02:08:09.619Z,20.8
2019-02-04T02:09:00.594Z,20.7
2019-02-04T02:09:50.114Z,20.6
2019-02-04T02:10:39.947Z,20.4
2019-02-04T02:11:29.449Z,20.3
2019-02-04T02:12:19.709Z,20.2
2019-02-04T02:13:11.746Z,20.1
2019-02-04T02:14:00.111Z,20
2019-02-04T02:14:50.451Z,19.9
2019-02-04T02:15:40.512Z,19.8
2019-02-04T02:16:35.756Z,19.6
2019-02-04T02:17:33.051Z,19.6
2019-02-04T02:18:11.594Z,19.4
2019-02-04T02:19:00.846Z,19.5
2019-02-04T02:19:52.041Z,19.9
2019-02-04T02:20:41.803Z,20.6
2019-02-04T02:21:31.208Z,21.1
2019-02-04T02:22:22.193Z,21.5
2019-02-04T02:23:11.613Z,21.8
2019-02-04T02:24:01.720Z,22
2019-02-04T02:24:51.269Z,22.3
2019-02-04T02:25:44.020Z,22.4
2019-02-04T02:26:31.520Z,22.6
2019-02-04T02:27:22.255Z,22.8
2019-02-04T02:28:11.955Z,22.9
2019-02-04T02:29:04.418Z,23.1
2019-02-04T02:29:51.880Z,23.2
2019-02-04T02:30:41.728Z,23.3
2019-02-04T02:31:32.022Z,23.1
2019-02-04T02:32:22.043Z,22.6
2019-02-04T02:33:13.081Z,22.1
2019-02-04T02:34:01.157Z,21.6
2019-02-04T02:34:54.965Z,21.3
2019-02-04T02:35:41.682Z,21.1
2019-02-04T02:36:31.157Z,20.9
2019-02-04T02:37:22.446Z,20.7
2019-02-04T02:38:12.607Z,20.6
2019-02-04T02:39:02.207Z,20.4
2019-02-04T02:39:51.764Z,20.3
2019-02-04T02:40:42.378Z,20.2
2019-02-04T02:41:33.329Z,20.1
2019-02-04T02:42:22.680Z,20
2019-02-04T02:43:15.601Z,19.9
2019-02-04T02:44:05.378Z,19.8
2019-02-04T02:44:52.582Z,19.7
2019-02-04T02:45:42.974Z,19.6
2019-02-04T02:46:33.007Z,19.5
2019-02-04T02:47:24.440Z,19.4
2019-02-04T02:48:12.262Z,19.8
2019-02-04T02:49:02.496Z,20.3
2019-02-04T02:49:53.537Z,20.9
2019-02-04T02:50:43.583Z,21.3
2019-02-04T02:51:33.069Z,21.6
2019-02-04T02:52:24.001Z,21.9
2019-02-04T02:53:16.380Z,22.1
2019-02-04T02:54:04.189Z,22.3
2019-02-04T02:54:53.423Z,22.5
2019-02-04T02:55:43.040Z,22.7
2019-02-04T02:56:34.253Z,22.8
2019-02-04T02:57:23.996Z,22.9
2019-02-04T02:58:14.361Z,23.1
2019-02-04T02:59:04.866Z,23.2
2019-02-04T02:59:53.919Z,23.3
2019-02-04T03:00:43.233Z,22.9
2019-02-04T03:01:33.746Z,22.4
2019-02-04T03:02:27.045Z,21.9
2019-02-04T03:03:14.518Z,21.5
2019-02-04T03:04:04.482Z,21.3
2019-02-04T03:04:54.560Z,21.1
2019-02-04T03:08:27.437Z,20.4
2019-02-04T03:09:17.905Z,20.3
2019-02-04T03:10:07.045Z,20.2
2019-02-04T03:10:57.238Z,20.1
2019-02-04T03:11:46.685Z,19.9
2019-02-04T03:12:40.345Z,19.8
2019-02-04T03:13:27.340Z,19.7
2019-02-04T03:14:17.484Z,19.6
2019-02-04T03:15:07.972Z,19.6
2019-02-04T03:15:57.259Z,19.4
2019-02-04T03:16:47.326Z,19.5
2019-02-04T03:17:36.964Z,20.1
2019-02-04T03:18:29.057Z,20.9
2019-02-04T03:19:17.780Z,21.3
2019-02-04T03:20:07.066Z,21.6
2019-02-04T03:20:57.327Z,21.9
2019-02-04T03:21:50.024Z,22.1
2019-02-04T03:22:37.825Z,22.3
2019-02-04T03:23:27.890Z,22.5
2019-02-04T03:24:17.688Z,22.7
2019-02-04T03:25:08.344Z,22.8
2019-02-04T03:25:58.055Z,22.9
2019-02-04T03:26:48.676Z,23.1
2019-02-04T03:27:40.077Z,23.2
2019-02-04T03:28:28.092Z,23.3
2019-02-04T03:29:17.854Z,23
2019-02-04T03:30:08.595Z,22.4
2019-02-04T03:31:00.493Z,21.9
2019-02-04T03:31:55.815Z,21.6
2019-02-04T03:32:38.626Z,21.3
2019-02-04T03:33:29.541Z,21
2019-02-04T03:34:18.737Z,20.8
2019-02-04T03:35:08.699Z,20.7
2019-02-04T03:35:57.549Z,20.6
2019-02-04T03:36:49.902Z,20.4
2019-02-04T03:37:38.559Z,20.3
2019-02-04T03:38:28.073Z,20.2
2019-02-04T03:39:18.967Z,20.1
2019-02-04T03:40:11.771Z,19.9
2019-02-04T03:40:58.827Z,19.9
2019-02-04T03:41:49.038Z,19.8
2019-02-04T03:42:38.857Z,19.7
2019-02-04T03:43:29.447Z,19.6
2019-02-04T03:44:19.286Z,19.4
2019-02-04T03:45:09.706Z,19.5
2019-02-04T03:45:59.156Z,20
2019-02-04T03:46:49.376Z,20.8
2019-02-04T03:47:38.242Z,21.2
2019-02-04T03:48:28.528Z,21.6
2019-02-04T03:49:22.245Z,21.8
2019-02-04T03:50:09.725Z,22.1
2019-02-04T03:50:59.512Z,22.3
2019-02-04T03:51:48.854Z,22.5
2019-02-04T03:52:41.424Z,22.6
2019-02-04T03:53:29.804Z,22.8
2019-02-04T03:54:20.305Z,22.9
2019-02-04T03:55:09.958Z,23.1
2019-02-04T03:56:00.086Z,23.2
2019-02-04T03:56:49.519Z,23.3
2019-02-04T03:57:40.057Z,23.1
2019-02-04T03:58:31.910Z,22.5
2019-02-04T03:59:20.495Z,22
2019-02-04T04:00:10.169Z,21.6
2019-02-04T04:00:59.799Z,21.3
2019-02-04T04:01:52.381Z,21.1
2019-02-04T04:02:39.704Z,20.9
2019-02-04T04:03:30.642Z,20.7
2019-02-04T04:04:19.929Z,20.6
2019-02-04T04:05:10.196Z,20.4
2019-02-04T04:06:00.504Z,20.3
2019-02-04T04:06:50.022Z,20.2
2019-02-04T04:07:41.587Z,20.1
2019-02-04T04:08:31.032Z,20
2019-02-04T04:09:20.184Z,19.9
2019-02-04T04:10:10.229Z,19.8
2019-02-04T04:11:02.742Z,19.7
2019-02-04T04:11:50.362Z,19.6
2019-02-04T04:12:40.931Z,19.4
2019-02-04T04:13:30.822Z,19.4
2019-02-04T04:14:21.984Z,19.7
2019-02-04T04:15:10.627Z,20.4
2019-02-04T04:16:01.481Z,20.9
2019-02-04T04:16:51.640Z,21.4
2019-02-04T04:17:41.408Z,21.7
2019-02-04T04:18:31.276Z,21.9
2019-02-04T04:19:21.455Z,22.2
2019-02-04T04:20:14.361Z,22.4
2019-02-04T04:21:01.746Z,22.6
2019-02-04T04:21:51.517Z,22.8
2019-02-04T04:22:42.421Z,22.9
2019-02-04T04:23:32.166Z,23
2019-02-04T04:24:22.108Z,23.1
2019-02-04T04:25:26.965Z,23.3
2019-02-04T04:26:03.189Z,23
2019-02-04T04:26:52.691Z,22.6
2019-02-04T04:27:42.318Z,22.1
2019-02-04T04:28:32.585Z,21.6
2019-02-04T04:29:25.606Z,21.3
2019-02-04T04:31:02.695Z,20.9
2019-02-04T04:31:52.747Z,20.8
2019-02-04T04:32:42.752Z,20.6
2019-02-04T04:33:32.705Z,20.4
2019-02-04T04:34:22.493Z,20.3
2019-02-04T04:35:13.682Z,20.2
2019-02-04T04:36:03.059Z,20.1
2019-02-04T04:36:53.132Z,20
2019-02-04T04:37:42.986Z,19.9
2019-02-04T04:38:35.062Z,19.8
2019-02-04T04:39:23.067Z,19.7
2019-02-04T04:40:12.867Z,19.6
2019-02-04T04:41:03.679Z,19.5
2019-02-04T04:41:53.806Z,19.5
2019-02-04T04:42:43.284Z,19.8
2019-02-04T04:43:33.612Z,20.4
2019-02-04T04:45:13.985Z,21.4
2019-02-04T04:46:03.196Z,21.8
2019-02-04T04:46:53.526Z,22
2019-02-04T04:47:46.327Z,22.2
2019-02-04T04:48:35.499Z,22.4
2019-02-04T04:49:23.539Z,22.6
2019-02-04T04:50:13.820Z,22.7
2019-02-04T04:51:04.246Z,22.9
2019-02-04T04:51:52.844Z,23
2019-02-04T04:52:43.779Z,23.1
2019-02-04T04:53:34.011Z,23.3
2019-02-04T04:54:24.046Z,23.2
2019-02-04T04:55:13.566Z,22.6
2019-02-04T04:56:03.986Z,22.1
2019-02-04T04:56:56.149Z,21.7
2019-02-04T04:57:44.341Z,21.3
2019-02-04T04:58:34.441Z,21.1
2019-02-04T04:59:23.943Z,20.9
2019-02-04T05:00:16.895Z,20.7
2019-02-04T05:01:04.546Z,20.6
2019-02-04T05:01:54.353Z,20.4
2019-02-04T05:02:45.125Z,20.3
2019-02-04T05:03:34.968Z,20.2
2019-02-04T05:04:24.163Z,20.1
2019-02-04T05:05:15.123Z,20
2019-02-04T05:06:07.395Z,19.9
2019-02-04T05:06:55.183Z,19.8
2019-02-04T05:07:45.073Z,19.7
2019-02-04T05:08:35.359Z,19.6
2019-02-04T05:09:27.668Z,19.4
2019-02-04T05:10:15.412Z,19.4
2019-02-04T05:11:04.950Z,19.4
2019-02-04T05:11:55.913Z,19.8
2019-02-04T05:12:45.337Z,20.5
2019-02-04T05:14:25.441Z,21.5
2019-02-04T05:15:17.594Z,21.8
2019-02-04T05:16:05.810Z,22.1
2019-02-04T05:16:55.880Z,22.3
2019-02-04T05:17:45.952Z,22.4
2019-02-04T05:18:46.838Z,22.6
2019-02-04T05:19:25.814Z,22.8
2019-02-04T05:20:16.391Z,22.9
2019-02-04T05:21:06.304Z,23
2019-02-04T05:21:56.345Z,23.1
2019-02-04T05:22:46.331Z,23.3
2019-02-04T05:23:35.815Z,23.1
2019-02-04T05:24:27.862Z,22.5
2019-02-04T05:25:16.779Z,22
2019-02-04T05:26:05.986Z,21.6
2019-02-04T05:26:56.081Z,21.3
2019-02-04T05:27:49.385Z,21.1
2019-02-04T05:28:36.681Z,20.8
2019-02-04T05:29:26.238Z,20.7
2019-02-04T05:30:16.864Z,20.6
2019-02-04T05:31:08.506Z,20.4
2019-02-04T05:31:56.976Z,20.3
2019-02-04T05:32:46.719Z,20.2
2019-02-04T05:33:36.832Z,20.1
2019-02-04T05:34:27.391Z,19.9
2019-02-04T05:35:16.735Z,19.9
2019-02-04T05:36:07.506Z,19.8
2019-02-04T05:36:59.266Z,19.6
2019-02-04T05:37:47.358Z,19.6
2019-02-04T05:38:37.153Z,19.4
2019-02-04T05:39:27.156Z,19.4
2019-02-04T05:40:18.755Z,19.4
2019-02-04T05:41:07.578Z,19.8
2019-02-04T05:41:57.392Z,20.5
2019-02-04T05:42:47.775Z,21.1
2019-02-04T05:43:37.593Z,21.4
2019-02-04T05:44:27.513Z,21.8
2019-02-04T05:45:17.967Z,22
2019-02-04T05:46:09.815Z,22.2
2019-02-04T05:47:00.715Z,22.4
2019-02-04T05:47:47.790Z,22.6
2019-02-04T05:48:49.758Z,22.7
2019-02-04T05:49:30.225Z,22.8
2019-02-04T05:50:21.500Z,22.9
2019-02-04T05:51:08.000Z,23.1
2019-02-04T05:52:01.010Z,23.2
2019-02-04T05:52:47.833Z,23.3
2019-02-04T05:53:37.946Z,22.9
2019-02-04T05:54:27.990Z,22.3
2019-02-04T05:55:21.217Z,21.8
2019-02-04T05:56:07.922Z,21.4
2019-02-04T05:56:57.587Z,21.2
2019-02-04T05:57:48.520Z,20.9
2019-02-04T05:58:43.663Z,20.8
2019-02-04T05:59:28.860Z,20.6
2019-02-04T06:00:18.707Z,20.4
2019-02-04T06:01:08.960Z,20.4
2019-02-04T06:01:58.471Z,20.3
2019-02-04T06:02:48.816Z,20.1
2019-02-04T06:03:38.842Z,20
2019-02-04T06:06:26.863Z,19.7
2019-02-04T06:07:19.594Z,19.6
2019-02-04T06:08:06.314Z,19.4
2019-02-04T06:08:58.539Z,19.4
2019-02-04T06:09:47.076Z,19.3
2019-02-04T06:10:36.478Z,19.4
2019-02-04T06:11:26.844Z,20.1
2019-02-04T06:12:16.711Z,20.8
2019-02-04T06:13:21.671Z,21.3
2019-02-04T06:14:10.639Z,21.7
2019-02-04T06:14:49.611Z,21.9
2019-02-04T06:15:36.608Z,22.1
2019-02-04T06:16:27.168Z,22.3
2019-02-04T06:17:17.233Z,22.4
2019-02-04T06:18:08.558Z,22.6
2019-02-04T06:19:08.701Z,22.8
2019-02-04T06:19:46.861Z,22.9
2019-02-04T06:20:36.903Z,23
2019-02-04T06:21:27.505Z,23.1
2019-02-04T06:22:16.575Z,23.3
2019-02-04T06:23:07.616Z,23.1
2019-02-04T06:23:59.090Z,22.4
2019-02-04T06:24:47.583Z,21.9
2019-02-04T06:25:37.453Z,21.6
2019-02-04T06:26:27.674Z,21.3
2019-02-04T06:27:21.733Z,21
2019-02-04T06:28:07.571Z,20.8
2019-02-04T06:28:57.795Z,20.7
2019-02-04T06:29:48.155Z,20.5
2019-02-04T06:30:38.419Z,20.4
2019-02-04T06:31:28.334Z,20.3
2019-02-04T06:32:18.862Z,20.1
2019-02-04T06:33:09.615Z,20.1
2019-02-04T06:33:58.684Z,19.9
2019-02-04T06:35:22.875Z,19.8
2019-02-04T06:35:38.212Z,19.6
2019-02-04T06:36:30.163Z,19.6
2019-02-04T06:37:18.590Z,19.5
2019-02-04T06:38:08.806Z,19.4
2019-02-04T06:38:58.179Z,19.4
2019-02-04T06:39:48.966Z,19.6
2019-02-04T06:40:38.439Z,20.4
2019-02-04T06:41:29.198Z,20.9
2019-02-04T06:42:20.679Z,21.4
2019-02-04T06:43:09.036Z,21.7
2019-02-04T06:43:59.094Z,21.9
2019-02-04T06:44:49.394Z,22.2
2019-02-04T06:45:41.507Z,22.4
2019-02-04T06:46:29.041Z,22.5
2019-02-04T06:47:19.303Z,22.7
2019-02-04T06:48:09.256Z,22.8
2019-02-04T06:48:58.556Z,23
2019-02-04T06:49:49.522Z,23.1
2019-02-04T06:50:39.506Z,23.2
2019-02-04T06:51:30.363Z,23.3
2019-02-04T06:52:19.483Z,22.7
2019-02-04T06:53:10.749Z,22.1
2019-02-04T06:53:58.664Z,21.7
2019-02-04T06:54:52.926Z,21.4
2019-02-04T06:56:30.254Z,20.9
2019-02-04T06:57:19.492Z,20.8
2019-02-04T06:58:24.515Z,20.6
2019-02-04T06:58:59.292Z,20.4
2019-02-04T06:59:49.911Z,20.3
2019-02-04T07:00:41.505Z,20.2
2019-02-04T07:01:30.606Z,20.1
2019-02-04T07:02:19.580Z,20
2019-02-04T07:03:10.244Z,19.9
2019-02-04T07:04:03.255Z,19.8
2019-02-04T07:06:27.883Z,19.5
2019-02-04T07:07:18.888Z,19.4
2019-02-04T07:08:06.713Z,19.4
2019-02-04T07:08:56.676Z,19.8
2019-02-04T07:09:50.027Z,20.5
2019-02-04T07:10:36.307Z,21.1
2019-02-04T07:11:27.072Z,21.4
2019-02-04T07:12:16.897Z,21.8
2019-02-04T07:13:06.458Z,21.9
2019-02-04T07:13:56.710Z,22.2
2019-02-04T07:14:46.860Z,22.4
2019-02-04T07:15:38.082Z,22.6
2019-02-04T07:16:27.884Z,22.7
2019-02-04T07:17:16.897Z,22.9
2019-02-04T07:18:10.767Z,23
2019-02-04T07:19:00.042Z,23.1
2019-02-04T07:19:46.459Z,23.3
2019-02-04T07:20:36.734Z,23.3
2019-02-04T07:21:29.150Z,22.8
2019-02-04T07:22:16.777Z,22.2
2019-02-04T07:23:06.976Z,21.8
2019-02-04T07:23:57.746Z,21.4
2019-02-04T07:25:36.682Z,20.9
2019-02-04T07:26:27.651Z,20.8
2019-02-04T07:27:17.058Z,20.6
2019-02-04T07:28:10.481Z,20.4
2019-02-04T07:28:58.031Z,20.3
2019-02-04T07:29:48.058Z,20.2
2019-02-04T07:30:38.382Z,20.1
2019-02-04T07:31:27.735Z,20
2019-02-04T07:32:17.991Z,19.9
2019-02-04T07:33:07.741Z,19.8
2019-02-04T07:34:00.063Z,19.7
2019-02-04T07:34:48.763Z,19.6
2019-02-04T07:35:38.788Z,19.4
2019-02-04T07:36:28.775Z,19.4
2019-02-04T07:37:19.508Z,19.4
2019-02-04T07:38:08.375Z,19.9
2019-02-04T07:38:58.711Z,20.6
2019-02-04T07:40:37.155Z,21.5
2019-02-04T07:41:29.314Z,21.8
2019-02-04T07:42:19.280Z,22.1
2019-02-04T07:43:11.785Z,22.3
2019-02-04T07:43:58.595Z,22.4
2019-02-04T07:44:49.670Z,22.6
2019-02-04T07:45:38.325Z,22.8
2019-02-04T07:46:34.198Z,22.9
2019-02-04T07:47:18.740Z,23.1
2019-02-04T07:48:08.602Z,23.2
2019-02-04T07:48:58.339Z,23.3
2019-02-04T07:49:48.930Z,22.9
2019-02-04T07:50:39.297Z,22.3
2019-02-04T07:51:29.309Z,21.8
2019-02-04T07:52:21.280Z,21.4
2019-02-04T07:53:09.192Z,21.2
2019-02-04T07:53:58.965Z,20.9
2019-02-04T07:54:49.777Z,20.8
2019-02-04T07:55:41.476Z,20.6
2019-02-04T07:56:29.324Z,20.4
2019-02-04T07:57:19.702Z,20.3
2019-02-04T07:58:09.466Z,20.2
2019-02-04T07:59:00.048Z,20.1
2019-02-04T07:59:49.579Z,20
2019-02-04T08:00:39.633Z,19.9
2019-02-04T08:01:32.399Z,19.8
2019-02-04T08:02:19.412Z,19.7
2019-02-04T08:03:10.336Z,19.6
2019-02-04T08:04:00.386Z,19.4
2019-02-04T08:04:53.064Z,19.4
2019-02-04T08:05:39.149Z,19.3
2019-02-04T08:06:30.576Z,19.4
2019-02-04T08:07:19.478Z,20.2
2019-02-04T08:08:10.948Z,20.9
2019-02-04T08:09:00.613Z,21.4
2019-02-04T08:09:50.669Z,21.7
2019-02-04T08:10:43.000Z,21.9
2019-02-04T08:11:30.243Z,22.2
2019-02-04T08:12:20.441Z,22.4
2019-02-04T08:13:09.695Z,22.6
2019-02-04T08:14:03.046Z,22.8
2019-02-04T08:14:54.126Z,22.9
2019-02-04T08:15:40.745Z,23.1
2019-02-04T08:16:31.083Z,23.2
2019-02-04T08:17:21.128Z,23.3
2019-02-04T08:18:11.251Z,23
2019-02-04T08:19:00.966Z,22.4
2019-02-04T08:19:55.658Z,21.9
2019-02-04T08:20:41.424Z,21.5
2019-02-04T08:21:30.465Z,21.3
2019-02-04T08:22:21.250Z,21
2019-02-04T08:23:13.051Z,20.8
2019-02-04T08:24:01.798Z,20.6
2019-02-04T08:24:51.573Z,20.5
2019-02-04T08:25:41.993Z,20.4
2019-02-04T08:26:31.303Z,20.3
2019-02-04T08:27:21.848Z,20.1
2019-02-04T08:28:12.073Z,20
2019-02-04T08:29:03.842Z,19.9
2019-02-04T08:29:52.835Z,19.8
2019-02-04T08:30:46.259Z,19.8
2019-02-04T08:31:31.844Z,19.6
2019-02-04T08:32:25.342Z,19.6
2019-02-04T08:33:12.493Z,19.4
2019-02-04T08:34:02.035Z,19.4
2019-02-04T08:34:52.702Z,19.4
2019-02-04T08:35:43.003Z,20.1
2019-02-04T08:36:47.494Z,20.8
2019-02-04T08:37:22.642Z,21.4
2019-02-04T08:38:14.782Z,21.7
2019-02-04T08:39:02.707Z,22
2019-02-04T08:39:51.777Z,22.2
2019-02-04T08:40:42.179Z,22.4
2019-02-04T08:41:33.772Z,22.6
2019-02-04T08:42:23.129Z,22.8
2019-02-04T08:43:13.121Z,22.9
2019-02-04T08:44:03.311Z,23.1
2019-02-04T08:44:52.871Z,23.3
2019-02-04T08:45:43.026Z,23.4
2019-02-04T08:46:33.048Z,23
2019-02-04T08:47:32.095Z,22.4
2019-02-04T08:48:13.046Z,21.8
2019-02-04T08:49:03.123Z,21.6
2019-02-04T08:50:07.568Z,21.3
2019-02-04T08:50:43.576Z,20.9
2019-02-04T08:51:33.776Z,20.8
2019-02-04T08:52:23.666Z,20.7
2019-02-04T08:53:15.636Z,20.5
2019-02-04T08:54:04.268Z,20.4
2019-02-04T08:54:54.076Z,20.3
2019-02-04T08:55:43.303Z,20.1
2019-02-04T08:56:35.325Z,20.1
2019-02-04T08:57:23.757Z,19.9
2019-02-04T08:58:14.691Z,19.9
2019-02-04T08:59:04.178Z,19.8
2019-02-04T08:59:53.693Z,19.6
2019-02-04T09:00:44.362Z,19.6
2019-02-04T09:01:34.344Z,19.4
2019-02-04T09:02:27.458Z,19.4
2019-02-04T09:03:14.293Z,19.4
2019-02-04T09:04:05.202Z,20
2019-02-04T09:04:54.755Z,20.7
2019-02-04T09:05:45.073Z,21.3
2019-02-04T09:06:34.942Z,21.7
2019-02-04T09:07:25.045Z,22
2019-02-04T09:08:15.947Z,22.2
2019-02-04T09:09:05.300Z,22.5
2019-02-04T09:09:54.259Z,22.6
2019-02-04T09:10:44.997Z,22.8
2019-02-04T09:11:37.117Z,23
2019-02-04T09:12:24.012Z,23.2
2019-02-04T09:13:14.307Z,23.3
2019-02-04T09:14:05.097Z,23.5
2019-02-04T09:14:55.167Z,23
2019-02-04T09:15:45.012Z,22.4
2019-02-04T09:16:35.062Z,21.9
2019-02-04T09:17:26.282Z,21.6
2019-02-04T09:18:13.884Z,21.3
2019-02-04T09:19:05.741Z,21
2019-02-04T09:19:54.814Z,20.8
2019-02-04T09:20:47.921Z,20.7
2019-02-04T09:21:34.949Z,20.6
2019-02-04T09:22:26.011Z,20.4
2019-02-04T09:23:16.245Z,20.3
2019-02-04T09:24:05.231Z,20.2
2019-02-04T09:24:55.576Z,20.1
2019-02-04T09:25:45.377Z,20
2019-02-04T09:26:38.376Z,19.9
2019-02-04T09:27:26.031Z,19.8
2019-02-04T09:28:15.848Z,19.8
2019-02-04T09:29:06.698Z,19.6
2019-02-04T09:29:58.108Z,19.5
2019-02-04T09:30:46.805Z,19.4
2019-02-04T09:31:35.993Z,19.7
2019-02-04T09:32:27.402Z,20.4
2019-02-04T09:33:16.453Z,21.2
2019-02-04T09:34:06.708Z,21.6
2019-02-04T09:34:56.568Z,21.9
2019-02-04T09:35:48.671Z,22.2
2019-02-04T09:36:37.246Z,22.4
2019-02-04T09:37:27.172Z,22.7
2019-02-04T09:38:16.974Z,22.9
2019-02-04T09:39:06.666Z,23.1
2019-02-04T09:39:57.114Z,23.3
2019-02-04T09:40:47.143Z,23.4
2019-02-04T09:41:37.899Z,23.5
2019-02-04T09:42:27.515Z,23.1
2019-02-04T09:43:18.084Z,22.4
2019-02-04T09:44:07.052Z,21.9
2019-02-04T09:45:00.366Z,21.6
2019-02-04T09:45:48.014Z,21.3
2019-02-04T09:46:37.699Z,21.1
2019-02-04T09:47:27.372Z,20.9
2019-02-04T09:48:17.602Z,20.8
2019-02-04T09:49:07.181Z,20.6
2019-02-04T09:49:57.161Z,20.4
2019-02-04T09:50:49.094Z,20.4
2019-02-04T09:51:37.545Z,20.3
2019-02-04T09:52:26.990Z,20.1
2019-02-04T09:53:18.242Z,20
2019-02-04T09:54:10.349Z,19.9
2019-02-04T09:54:57.694Z,19.8
2019-02-04T09:55:48.614Z,19.8
2019-02-04T09:56:38.357Z,19.7
2019-02-04T09:57:28.481Z,19.6
2019-02-04T09:58:18.296Z,19.5
2019-02-04T09:59:08.358Z,19.8
2019-02-04T10:00:02.379Z,20.5
2019-02-04T10:00:48.989Z,21.3
2019-02-04T10:01:38.551Z,21.6
2019-02-04T10:02:28.766Z,22
2019-02-04T10:03:21.101Z,22.3
2019-02-04T10:04:09.121Z,22.5
2019-02-04T10:04:59.144Z,22.8
2019-02-04T10:07:25.328Z,23.3
2019-02-04T10:08:15.961Z,23.4
2019-02-04T10:09:08.458Z,23.5
2019-02-04T10:09:55.698Z,22.9
2019-02-04T10:10:46.075Z,22.3
2019-02-04T10:11:36.355Z,21.9
2019-02-04T10:12:28.203Z,21.5
2019-02-04T10:13:16.820Z,21.3
2019-02-04T10:14:06.758Z,21
2019-02-04T10:14:55.998Z,20.8
2019-02-04T10:15:50.574Z,20.7
2019-02-04T10:16:36.798Z,20.6
2019-02-04T10:17:27.497Z,20.4
2019-02-04T10:18:18.953Z,20.3
2019-02-04T10:19:07.065Z,20.2
2019-02-04T10:19:58.025Z,20.1
2019-02-04T10:20:47.049Z,20
2019-02-04T10:21:40.066Z,19.9
2019-02-04T10:22:27.967Z,19.8
2019-02-04T10:23:17.374Z,19.7
2019-02-04T10:24:08.265Z,19.6
2019-02-04T10:24:58.280Z,19.5
2019-02-04T10:25:47.818Z,19.6
2019-02-04T10:26:37.880Z,20.3
2019-02-04T10:27:29.661Z,20.9
2019-02-04T10:28:17.676Z,21.5
2019-02-04T10:29:08.354Z,21.9
2019-02-04T10:29:59.022Z,22.2
2019-02-04T10:30:50.052Z,22.4
2019-02-04T10:31:37.888Z,22.7
2019-02-04T10:32:27.577Z,22.9
2019-02-04T10:33:18.818Z,23.1
2019-02-04T10:34:09.052Z,23.3
2019-02-04T10:34:58.321Z,23.4
2019-02-04T10:35:48.873Z,23.6
2019-02-04T10:36:39.728Z,22.9
2019-02-04T10:37:29.516Z,22.4
2019-02-04T10:38:22.515Z,21.9
2019-02-04T10:39:08.817Z,21.6
2019-02-04T10:40:00.732Z,21.3
2019-02-04T10:40:49.081Z,21.1
2019-02-04T10:41:38.326Z,20.9
2019-02-04T10:42:28.832Z,20.7
2019-02-04T10:43:18.819Z,20.6
2019-02-04T10:44:09.145Z,20.4
2019-02-04T10:44:58.646Z,20.3
2019-02-04T10:45:50.448Z,20.3
2019-02-04T10:46:39.142Z,20.1
2019-02-04T10:47:28.808Z,20
2019-02-04T10:48:20.367Z,19.9
2019-02-04T10:49:11.094Z,19.9
2019-02-04T10:49:59.746Z,19.8
2019-02-04T10:50:56.233Z,19.6
2019-02-04T10:51:40.046Z,19.6
2019-02-04T10:52:29.868Z,19.6
2019-02-04T10:53:20.358Z,20.2
2019-02-04T10:54:10.750Z,20.9
2019-02-04T10:55:02.133Z,21.5
2019-02-04T10:55:50.595Z,21.9
2019-02-04T10:56:39.810Z,22.2
2019-02-04T10:57:43.029Z,22.4
2019-02-04T10:58:22.500Z,22.8
2019-02-04T10:59:10.617Z,22.9
2019-02-04T11:00:00.029Z,23.1
2019-02-04T11:00:50.682Z,23.3
2019-02-04T11:01:40.772Z,23.4
2019-02-04T11:02:31.040Z,23.5
2019-02-04T11:03:22.912Z,22.9
2019-02-04T11:04:11.901Z,22.3
2019-02-04T11:05:00.762Z,21.9
2019-02-04T11:05:51.700Z,21.6
2019-02-04T11:06:40.753Z,21.3
2019-02-04T11:07:33.903Z,21.1
2019-02-04T11:08:21.754Z,20.9
2019-02-04T11:09:10.965Z,20.8
2019-02-04T11:10:01.263Z,20.6
2019-02-04T11:10:50.883Z,20.4
2019-02-04T11:11:41.539Z,20.3
2019-02-04T11:12:31.318Z,20.2
2019-02-04T11:13:22.139Z,20.1
2019-02-04T11:14:11.446Z,20
2019-02-04T11:15:00.953Z,19.9
2019-02-04T11:15:51.191Z,19.9
2019-02-04T11:16:44.035Z,19.8
2019-02-04T11:17:30.903Z,19.7
2019-02-04T11:18:21.858Z,19.6
2019-02-04T11:19:10.875Z,19.6
2019-02-04T11:20:01.788Z,20.1
2019-02-04T11:21:05.376Z,20.9
2019-02-04T11:21:41.563Z,21.6
2019-02-04T11:22:33.630Z,21.8
2019-02-04T11:23:21.942Z,22.2
2019-02-04T11:24:11.983Z,22.4